Temp: 4.1°C   Baro: 1034.2mb
  Wind: 0.9mph   Dir: SSW (196°)
  Rain: 0.0mm (0.0mm/hr)
  Solar: 0W/m2  Hum: 85%

Historic data

Bath Spa Weather Station Historical Data
Daily Summary for November 27, 2021 Units:  Both    English   Metric
Daily Weekly Monthly Yearly Custom
  High: Low: Average:
Temperature: 41.6 °F /  5.3 °C 34.2 °F /  1.2 °C 38 °F /  3.3 °C
Dew Point: 36.4 °F /  2.4 °C 27 °F /  -2.8 °C 32 °F /  0 °C
Humidity: 90% 66.6% 76%
Wind Speed: 20.1mph /  32.3km/h - 11mph /  17.7km/h
Wind Gust: 42mph /  67.6km/h - -
Wind- - WNW
Pressure: 29.82 in /  1009.7 hPa 29.19 in /  988.4 hPa -
Precipitation: 0.10 in /  2.54 mm    
Historical Graphs
 
 
Tabular Data for November 27, 2021
Time Temperature Dew Point Pressure Wind Wind Speed Wind Gust Humidity Rainfall Rate (Hourly) solar
00:09 40.4 °F /  4.7 °C 36.4 °F /  2.4 °C 29.22in /  989.4hPa NW 9mph /  14.5km/h 17mph /  27.4km/h 82.6% 0.00in /  0mm 0 W/m2
00:14 40.6 °F /  4.8 °C 36.3 °F /  2.4 °C 29.21in /  989.1hPa NW 10.5mph /  16.9km/h 21mph /  33.8km/h 81.6% 0.00in /  0mm 0 W/m2
00:19 40.6 °F /  4.8 °C 36.1 °F /  2.3 °C 29.21in /  989.1hPa NW 10.6mph /  17.1km/h 22mph /  35.4km/h 81% 0.00in /  0mm 0 W/m2
00:24 40.8 °F /  4.9 °C 36.3 °F /  2.4 °C 29.21in /  989.1hPa WNW 10.6mph /  17.1km/h 22mph /  35.4km/h 80.8% 0.00in /  0mm 0 W/m2
00:29 41.2 °F /  5.1 °C 36.3 °F /  2.4 °C 29.21in /  989.1hPa WNW 12.2mph /  19.6km/h 25mph /  40.2km/h 80% 0.00in /  0mm 0 W/m2
00:34 41.4 °F /  5.2 °C 36.1 °F /  2.3 °C 29.20in /  988.7hPa NW 10.6mph /  17.1km/h 25mph /  40.2km/h 78.4% 0.01in /  0.25mm 0 W/m2
00:39 41.6 °F /  5.3 °C 35.9 °F /  2.2 °C 29.20in /  988.7hPa NW 16.2mph /  26.1km/h 30mph /  48.3km/h 77.3% 0.01in /  0.25mm 0 W/m2
00:44 41.5 °F /  5.3 °C 35.8 °F /  2.1 °C 29.20in /  988.7hPa NW 12.5mph /  20.1km/h 27mph /  43.5km/h 77% 0.01in /  0.25mm 0 W/m2
00:49 41.4 °F /  5.2 °C 35.6 °F /  2 °C 29.20in /  988.7hPa NW 15.6mph /  25.1km/h 34mph /  54.7km/h 77% 0.01in /  0.25mm 0 W/m2
00:54 41.3 °F /  5.2 °C 35.9 °F /  2.2 °C 29.20in /  988.7hPa WNW 14.6mph /  23.5km/h 28mph /  45.1km/h 78% 0.01in /  0.25mm 0 W/m2
00:59 40.9 °F /  4.9 °C 35.8 °F /  2.1 °C 29.20in /  988.7hPa NW 13.4mph /  21.6km/h 34mph /  54.7km/h 79% 0.01in /  0.25mm 0 W/m2
01:04 40.4 °F /  4.7 °C 35.7 °F /  2.1 °C 29.20in /  988.7hPa NNW 20.1mph /  32.3km/h 34mph /  54.7km/h 80.6% 0.01in /  0.25mm 0 W/m2
01:09 39.8 °F /  4.3 °C 35.7 °F /  2.1 °C 29.20in /  988.7hPa NW 18mph /  29km/h 33mph /  53.1km/h 82% 0.01in /  0.25mm 0 W/m2
01:14 39.6 °F /  4.2 °C 35.8 °F /  2.1 °C 29.20in /  988.7hPa NW 17.6mph /  28.3km/h 26mph /  41.8km/h 83% 0.01in /  0.25mm 0 W/m2
01:19 39.3 °F /  4.1 °C 35.8 °F /  2.1 °C 29.19in /  988.4hPa NW 11.3mph /  18.2km/h 30mph /  48.3km/h 84% 0.01in /  0.25mm 0 W/m2
01:24 39 °F /  3.9 °C 35.6 °F /  2 °C 29.19in /  988.4hPa NW 15.8mph /  25.4km/h 35mph /  56.3km/h 84.4% 0.01in /  0.25mm 0 W/m2
01:29 39 °F /  3.9 °C 35.5 °F /  1.9 °C 29.20in /  988.7hPa NW 12.1mph /  19.5km/h 35mph /  56.3km/h 84.2% 0.01in /  0.25mm 0 W/m2
01:34 39.3 °F /  4.1 °C 35.7 °F /  2.1 °C 29.19in /  988.4hPa NNW 16.8mph /  27km/h 34mph /  54.7km/h 84% 0.01in /  0.25mm 0 W/m2
01:39 39.4 °F /  4.1 °C 35.8 °F /  2.1 °C 29.19in /  988.4hPa NW 18.2mph /  29.3km/h 32mph /  51.5km/h 84% 0.01in /  0.25mm 0 W/m2
01:44 39.2 °F /  4 °C 35.6 °F /  2 °C 29.19in /  988.4hPa NW 14.9mph /  24km/h 31mph /  49.9km/h 84% 0.01in /  0.25mm 0 W/m2
01:49 39 °F /  3.9 °C 35.4 °F /  1.9 °C 29.19in /  988.4hPa NW 15.4mph /  24.8km/h 33mph /  53.1km/h 84% 0.01in /  0.25mm 0 W/m2
01:54 39 °F /  3.9 °C 35.4 °F /  1.9 °C 29.19in /  988.4hPa NNW 18mph /  29km/h 33mph /  53.1km/h 84% 0.01in /  0.25mm 0 W/m2
01:59 38.8 °F /  3.8 °C 35.5 °F /  1.9 °C 29.19in /  988.4hPa NW 12.8mph /  20.6km/h 33mph /  53.1km/h 84.8% 0.01in /  0.25mm 0 W/m2
02:04 38.7 °F /  3.7 °C 35.4 °F /  1.9 °C 29.20in /  988.7hPa NNW 13.8mph /  22.2km/h 24mph /  38.6km/h 85% 0.01in /  0.25mm 0 W/m2
02:09 38.7 °F /  3.7 °C 35.4 °F /  1.9 °C 29.20in /  988.7hPa NNW 14.1mph /  22.7km/h 26mph /  41.8km/h 85% 0.01in /  0.25mm 0 W/m2
02:14 38.8 °F /  3.8 °C 35.6 °F /  2 °C 29.20in /  988.7hPa NW 16.6mph /  26.7km/h 28mph /  45.1km/h 85% 0.01in /  0.25mm 0 W/m2
02:19 38.9 °F /  3.8 °C 35.7 °F /  2.1 °C 29.20in /  988.7hPa NNW 13.2mph /  21.2km/h 24mph /  38.6km/h 85% 0.01in /  0.25mm 0 W/m2
02:24 39 °F /  3.9 °C 35.8 °F /  2.1 °C 29.21in /  989.1hPa NW 11.3mph /  18.2km/h 33mph /  53.1km/h 84.8% 0.01in /  0.25mm 0 W/m2
02:29 39.4 °F /  4.1 °C 35.8 °F /  2.1 °C 29.21in /  989.1hPa NNW 13mph /  20.9km/h 23mph /  37km/h 84% 0.01in /  0.25mm 0 W/m2
02:34 39.6 °F /  4.2 °C 35.9 °F /  2.2 °C 29.21in /  989.1hPa NNW 17mph /  27.4km/h 26mph /  41.8km/h 83.4% 0.00in /  0mm 0 W/m2
02:39 39.7 °F /  4.3 °C 36 °F /  2.2 °C 29.21in /  989.1hPa NNW 9.8mph /  15.8km/h 24mph /  38.6km/h 83% 0.00in /  0mm 0 W/m2
02:44 39.7 °F /  4.3 °C 35.7 °F /  2.1 °C 29.22in /  989.4hPa North 12.2mph /  19.6km/h 25mph /  40.2km/h 82.2% 0.00in /  0mm 0 W/m2
02:49 39.9 °F /  4.4 °C 35.8 °F /  2.1 °C 29.22in /  989.4hPa NNW 14mph /  22.5km/h 30mph /  48.3km/h 82% 0.00in /  0mm 0 W/m2
02:54 40.2 °F /  4.6 °C 35.7 °F /  2.1 °C 29.22in /  989.4hPa NNW 16.4mph /  26.4km/h 32mph /  51.5km/h 81% 0.00in /  0mm 0 W/m2
02:59 40.3 °F /  4.6 °C 35.8 °F /  2.1 °C 29.22in /  989.4hPa NNW 12.6mph /  20.3km/h 29mph /  46.7km/h 81% 0.00in /  0mm 0 W/m2
03:04 40.3 °F /  4.6 °C 35.8 °F /  2.1 °C 29.23in /  989.7hPa NNW 15mph /  24.1km/h 30mph /  48.3km/h 81% 0.00in /  0mm 0 W/m2
03:09 40 °F /  4.4 °C 35.5 °F /  1.9 °C 29.23in /  989.7hPa NNW 15.7mph /  25.3km/h 28mph /  45.1km/h 81% 0.00in /  0mm 0 W/m2
03:14 39.9 °F /  4.4 °C 35.4 °F /  1.9 °C 29.24in /  990.1hPa North 11.6mph /  18.7km/h 28mph /  45.1km/h 81% 0.00in /  0mm 0 W/m2
03:19 39.9 °F /  4.4 °C 35.4 °F /  1.9 °C 29.23in /  989.7hPa North 12.2mph /  19.6km/h 30mph /  48.3km/h 81% 0.00in /  0mm 0 W/m2
03:24 39.8 °F /  4.3 °C 35.3 °F /  1.8 °C 29.24in /  990.1hPa NNW 12mph /  19.3km/h 33mph /  53.1km/h 81% 0.00in /  0mm 0 W/m2
03:29 39.9 °F /  4.4 °C 35.4 °F /  1.9 °C 29.24in /  990.1hPa NNW 13.8mph /  22.2km/h 29mph /  46.7km/h 81% 0.00in /  0mm 0 W/m2
03:34 39.9 °F /  4.4 °C 35.4 °F /  1.9 °C 29.25in /  990.4hPa NNW 16.4mph /  26.4km/h 31mph /  49.9km/h 81% 0.00in /  0mm 0 W/m2
03:39 40.1 °F /  4.5 °C 35.2 °F /  1.8 °C 29.25in /  990.4hPa NNW 12mph /  19.3km/h 31mph /  49.9km/h 80% 0.00in /  0mm 0 W/m2
03:44 39.9 °F /  4.4 °C 35.4 °F /  1.9 °C 29.26in /  990.7hPa North 11.2mph /  18km/h 27mph /  43.5km/h 81% 0.00in /  0mm 0 W/m2
03:49 39.7 °F /  4.3 °C 35.2 °F /  1.8 °C 29.26in /  990.7hPa NW 14.2mph /  22.9km/h 24mph /  38.6km/h 81% 0.00in /  0mm 0 W/m2
03:54 39.5 °F /  4.2 °C 35.3 °F /  1.8 °C 29.25in /  990.4hPa NW 15.4mph /  24.8km/h 30mph /  48.3km/h 82% 0.00in /  0mm 0 W/m2
03:59 39.2 °F /  4 °C 35.3 °F /  1.8 °C 29.25in /  990.4hPa NNW 13.8mph /  22.2km/h 28mph /  45.1km/h 82.8% 0.00in /  0mm 0 W/m2
04:04 39 °F /  3.9 °C 35.2 °F /  1.8 °C 29.26in /  990.7hPa NNW 14.2mph /  22.9km/h 30mph /  48.3km/h 83% 0.00in /  0mm 0 W/m2
04:09 39 °F /  3.9 °C 35.3 °F /  1.8 °C 29.26in /  990.7hPa NNW 9.6mph /  15.4km/h 30mph /  48.3km/h 83.8% 0.00in /  0mm 0 W/m2
04:14 38.8 °F /  3.8 °C 35.2 °F /  1.8 °C 29.26in /  990.7hPa NNW 10mph /  16.1km/h 30mph /  48.3km/h 84% 0.00in /  0mm 0 W/m2
04:19 38.8 °F /  3.8 °C 35.2 °F /  1.8 °C 29.27in /  991.1hPa NW 12mph /  19.3km/h 21mph /  33.8km/h 84% 0.00in /  0mm 0 W/m2
04:24 38.7 °F /  3.7 °C 35.3 °F /  1.8 °C 29.27in /  991.1hPa North 12.9mph /  20.8km/h 23mph /  37km/h 84.6% 0.00in /  0mm 0 W/m2
04:29 38.7 °F /  3.7 °C 35.4 °F /  1.9 °C 29.27in /  991.1hPa NW 9.8mph /  15.8km/h 25mph /  40.2km/h 85% 0.00in /  0mm 0 W/m2
04:34 38.5 °F /  3.6 °C 35.2 °F /  1.8 °C 29.28in /  991.4hPa NNW 13.5mph /  21.7km/h 28mph /  45.1km/h 85% 0.00in /  0mm 0 W/m2
04:39 38.7 °F /  3.7 °C 35.4 °F /  1.9 °C 29.27in /  991.1hPa NW 11.6mph /  18.7km/h 23mph /  37km/h 85% 0.00in /  0mm 0 W/m2
04:44 38.8 °F /  3.8 °C 35.5 °F /  1.9 °C 29.28in /  991.4hPa NNW 13.8mph /  22.2km/h 21mph /  33.8km/h 84.8% 0.00in /  0mm 0 W/m2
04:48 39.2 °F /  4 °C 35.5 °F /  1.9 °C 29.28in /  991.4hPa NNW 13.3mph /  21.4km/h 37mph /  59.5km/h 83.8% 0.00in /  0mm 0 W/m2
04:54 39.5 °F /  4.2 °C 35.4 °F /  1.9 °C 29.28in /  991.4hPa NW 18mph /  29km/h 30mph /  48.3km/h 82.4% 0.00in /  0mm 0 W/m2
04:59 39.6 °F /  4.2 °C 35.4 °F /  1.9 °C 29.28in /  991.4hPa North 12.8mph /  20.6km/h 23mph /  37km/h 82% 0.00in /  0mm 0 W/m2
05:04 39.6 °F /  4.2 °C 35.2 °F /  1.8 °C 29.29in /  991.8hPa NNW 19.6mph /  31.5km/h 37mph /  59.5km/h 81.6% 0.00in /  0mm 0 W/m2
05:09 39.6 °F /  4.2 °C 35.1 °F /  1.7 °C 29.29in /  991.8hPa NNW 12.2mph /  19.6km/h 35mph /  56.3km/h 81% 0.00in /  0mm 0 W/m2
05:14 39.6 °F /  4.2 °C 35.1 °F /  1.7 °C 29.30in /  992.1hPa NNW 18.2mph /  29.3km/h 35mph /  56.3km/h 80.8% 0.00in /  0mm 0 W/m2
05:19 39.7 °F /  4.3 °C 34.9 °F /  1.6 °C 29.30in /  992.1hPa NNW 15mph /  24.1km/h 38mph /  61.2km/h 80% 0.00in /  0mm 0 W/m2
05:24 39.7 °F /  4.3 °C 34.8 °F /  1.6 °C 29.31in /  992.4hPa NW 9.6mph /  15.4km/h 28mph /  45.1km/h 79.6% 0.00in /  0mm 0 W/m2
05:29 39.7 °F /  4.3 °C 34.7 °F /  1.5 °C 29.31in /  992.4hPa North 15mph /  24.1km/h 31mph /  49.9km/h 79.2% 0.00in /  0mm 0 W/m2
05:34 39.4 °F /  4.1 °C 34.5 °F /  1.4 °C 29.32in /  992.8hPa North 14.2mph /  22.9km/h 36mph /  57.9km/h 80% 0.00in /  0mm 0 W/m2
05:39 39 °F /  3.9 °C 34.4 °F /  1.3 °C 29.32in /  992.8hPa North 16.4mph /  26.4km/h 33mph /  53.1km/h 80.4% 0.00in /  0mm 0 W/m2
05:44 38.8 °F /  3.8 °C 34.3 °F /  1.3 °C 29.33in /  993.1hPa North 12.2mph /  19.6km/h 36mph /  57.9km/h 81% 0.00in /  0mm 0 W/m2
05:49 38.8 °F /  3.8 °C 34.3 °F /  1.3 °C 29.33in /  993.1hPa NNW 12.2mph /  19.6km/h 25mph /  40.2km/h 81% 0.00in /  0mm 0 W/m2
05:54 38.9 °F /  3.8 °C 34.3 °F /  1.3 °C 29.33in /  993.1hPa NNW 13.4mph /  21.6km/h 31mph /  49.9km/h 80.4% 0.00in /  0mm 0 W/m2
05:59 39 °F /  3.9 °C 34.3 °F /  1.3 °C 29.34in /  993.5hPa North 17.8mph /  28.6km/h 23mph /  37km/h 80% 0.00in /  0mm 0 W/m2
06:04 39 °F /  3.9 °C 34.3 °F /  1.3 °C 29.34in /  993.5hPa NNW 12.2mph /  19.6km/h 28mph /  45.1km/h 80% 0.00in /  0mm 0 W/m2
06:09 38.9 °F /  3.8 °C 34.3 °F /  1.3 °C 29.35in /  993.8hPa North 8.8mph /  14.2km/h 30mph /  48.3km/h 80% 0.00in /  0mm 0 W/m2
06:14 39 °F /  3.9 °C 34 °F /  1.1 °C 29.35in /  993.8hPa NNW 12.6mph /  20.3km/h 30mph /  48.3km/h 79% 0.00in /  0mm 0 W/m2
06:19 39 °F /  3.9 °C 34 °F /  1.1 °C 29.36in /  994.1hPa North 15mph /  24.1km/h 29mph /  46.7km/h 79% 0.00in /  0mm 0 W/m2
06:24 39 °F /  3.9 °C 33.8 °F /  1 °C 29.36in /  994.1hPa North 15mph /  24.1km/h 37mph /  59.5km/h 78.6% 0.00in /  0mm 0 W/m2
06:29 39 °F /  3.9 °C 33.6 °F /  0.9 °C 29.37in /  994.5hPa North 12mph /  19.3km/h 27mph /  43.5km/h 78% 0.00in /  0mm 0 W/m2
06:34 39 °F /  3.9 °C 33.6 °F /  0.9 °C 29.37in /  994.5hPa North 9.8mph /  15.8km/h 27mph /  43.5km/h 78% 0.00in /  0mm 0 W/m2
06:39 38.7 °F /  3.7 °C 33.6 °F /  0.9 °C 29.38in /  994.8hPa NNW 14.3mph /  23km/h 37mph /  59.5km/h 78.8% 0.00in /  0mm 0 W/m2
06:44 38.5 °F /  3.6 °C 33.5 °F /  0.8 °C 29.38in /  994.8hPa NNW 10.4mph /  16.7km/h 25mph /  40.2km/h 79.2% 0.00in /  0mm 0 W/m2
06:49 38 °F /  3.3 °C 33.3 °F /  0.7 °C 29.39in /  995.1hPa North 14mph /  22.5km/h 42mph /  67.6km/h 80% 0.00in /  0mm 0 W/m2
06:54 37.8 °F /  3.2 °C 33.3 °F /  0.7 °C 29.39in /  995.1hPa North 10.4mph /  16.7km/h 24mph /  38.6km/h 81% 0.00in /  0mm 0 W/m2
06:59 37.8 °F /  3.2 °C 33.3 °F /  0.7 °C 29.39in /  995.1hPa North 14.9mph /  24km/h 29mph /  46.7km/h 81% 0.00in /  0mm 0 W/m2
07:04 37.8 °F /  3.2 °C 33.1 °F /  0.6 °C 29.39in /  995.1hPa North 8.8mph /  14.2km/h 21mph /  33.8km/h 80% 0.00in /  0mm 0 W/m2
07:09 37.8 °F /  3.2 °C 33.1 °F /  0.6 °C 29.40in /  995.5hPa NNW 11.8mph /  19km/h 24mph /  38.6km/h 80% 0.00in /  0mm 0 W/m2
07:14 37.8 °F /  3.2 °C 33.1 °F /  0.6 °C 29.40in /  995.5hPa NNE 12.6mph /  20.3km/h 29mph /  46.7km/h 80% 0.00in /  0mm 0 W/m2
07:19 37.8 °F /  3.2 °C 33.1 °F /  0.6 °C 29.41in /  995.8hPa NNW 12.6mph /  20.3km/h 36mph /  57.9km/h 80% 0.00in /  0mm 0 W/m2
07:24 37.6 °F /  3.1 °C 33.1 °F /  0.6 °C 29.41in /  995.8hPa NNW 12mph /  19.3km/h 26mph /  41.8km/h 81% 0.00in /  0mm 0 W/m2
07:29 36.7 °F /  2.6 °C 33 °F /  0.6 °C 29.41in /  995.8hPa NNW 12.6mph /  20.3km/h 28mph /  45.1km/h 83.2% 0.00in /  0mm 0 W/m2
07:34 36.1 °F /  2.3 °C 32.9 °F /  0.5 °C 29.41in /  995.8hPa NNW 10.8mph /  17.4km/h 28mph /  45.1km/h 84.6% 0.00in /  0mm 0 W/m2
07:39 36 °F /  2.2 °C 32.9 °F /  0.5 °C 29.42in /  996.2hPa NNW 5.3mph /  8.5km/h 22mph /  35.4km/h 85.6% 0.00in /  0mm 0 W/m2
07:44 36 °F /  2.2 °C 33.1 °F /  0.6 °C 29.42in /  996.2hPa NNW 10.2mph /  16.4km/h 20mph /  32.2km/h 86.2% 0.00in /  0mm 0 W/m2
07:49 35.8 °F /  2.1 °C 33.3 °F /  0.7 °C 29.43in /  996.5hPa North 10.8mph /  17.4km/h 25mph /  40.2km/h 86.8% 0.01in /  0.25mm 0 W/m2
07:54 35.8 °F /  2.1 °C 33.3 °F /  0.7 °C 29.43in /  996.5hPa NW 8mph /  12.9km/h 18mph /  29km/h 87% 0.01in /  0.25mm 0 W/m2
07:59 35.9 °F /  2.2 °C 33.4 °F /  0.8 °C 29.43in /  996.5hPa NNW 10.2mph /  16.4km/h 30mph /  48.3km/h 87% 0.01in /  0.25mm 5 W/m2
08:04 36.6 °F /  2.6 °C 33.8 °F /  1 °C 29.44in /  996.8hPa North 11mph /  17.7km/h 23mph /  37km/h 86.4% 0.01in /  0.25mm 9 W/m2
08:09 37.1 °F /  2.8 °C 34 °F /  1.1 °C 29.44in /  996.8hPa NNW 14.8mph /  23.8km/h 27mph /  43.5km/h 85.2% 0.01in /  0.25mm 9 W/m2
08:14 37.2 °F /  2.9 °C 33.7 °F /  0.9 °C 29.44in /  996.8hPa NNW 9.2mph /  14.8km/h 26mph /  41.8km/h 83.6% 0.01in /  0.25mm 12 W/m2
08:19 37.2 °F /  2.9 °C 33.4 °F /  0.8 °C 29.45in /  997.2hPa NNW 9.8mph /  15.8km/h 20mph /  32.2km/h 83% 0.01in /  0.25mm 21 W/m2
08:24 37.1 °F /  2.8 °C 33.3 °F /  0.7 °C 29.45in /  997.2hPa North 9.2mph /  14.8km/h 19mph /  30.6km/h 83% 0.01in /  0.25mm 25 W/m2
08:29 37.2 °F /  2.9 °C 33.5 °F /  0.8 °C 29.46in /  997.5hPa North 13.8mph /  22.2km/h 29mph /  46.7km/h 83.2% 0.01in /  0.25mm 21 W/m2
08:34 37.2 °F /  2.9 °C 33.6 °F /  0.9 °C 29.46in /  997.5hPa North 17.2mph /  27.7km/h 29mph /  46.7km/h 83.4% 0.01in /  0.25mm 26 W/m2
08:39 37.4 °F /  3 °C 33.6 °F /  0.9 °C 29.47in /  997.9hPa North 11.1mph /  17.9km/h 27mph /  43.5km/h 83% 0.01in /  0.25mm 25 W/m2
08:44 37.2 °F /  2.9 °C 33.4 °F /  0.8 °C 29.47in /  997.9hPa North 12.8mph /  20.6km/h 27mph /  43.5km/h 83% 0.01in /  0.25mm 19 W/m2
08:49 37.6 °F /  3.1 °C 33.8 °F /  1 °C 29.47in /  997.9hPa North 16mph /  25.7km/h 35mph /  56.3km/h 83% 0.01in /  0.25mm 19 W/m2
08:54 37.9 °F /  3.3 °C 33.7 °F /  0.9 °C 29.48in /  998.2hPa NNW 16mph /  25.7km/h 33mph /  53.1km/h 82% 0.01in /  0.25mm 19 W/m2
08:59 37.9 °F /  3.3 °C 33.8 °F /  1 °C 29.48in /  998.2hPa NNE 13mph /  20.9km/h 28mph /  45.1km/h 82% 0.01in /  0.25mm 26 W/m2
09:04 37.7 °F /  3.2 °C 33.5 °F /  0.8 °C 29.49in /  998.5hPa North 14.9mph /  24km/h 28mph /  45.1km/h 82% 0.01in /  0.25mm 58 W/m2
09:09 37 °F /  2.8 °C 33.4 °F /  0.8 °C 29.50in /  998.9hPa NNW 11.6mph /  18.7km/h 29mph /  46.7km/h 83.4% 0.01in /  0.25mm 63 W/m2
09:14 36.8 °F /  2.7 °C 33.4 °F /  0.8 °C 29.50in /  998.9hPa North 9.8mph /  15.8km/h 28mph /  45.1km/h 84.4% 0.01in /  0.25mm 39 W/m2
09:19 36.6 °F /  2.6 °C 33.4 °F /  0.8 °C 29.51in /  999.2hPa NW 10.4mph /  16.7km/h 28mph /  45.1km/h 85% 0.01in /  0.25mm 35 W/m2
09:24 36.7 °F /  2.6 °C 33.6 °F /  0.9 °C 29.51in /  999.2hPa North 14.6mph /  23.5km/h 29mph /  46.7km/h 85.6% 0.01in /  0.25mm 39 W/m2
09:29 36.7 °F /  2.6 °C 33.8 °F /  1 °C 29.52in /  999.5hPa NNW 11.5mph /  18.5km/h 25mph /  40.2km/h 86% 0.01in /  0.25mm 23 W/m2
09:34 36.9 °F /  2.7 °C 34 °F /  1.1 °C 29.52in /  999.5hPa NNW 14.5mph /  23.3km/h 29mph /  46.7km/h 86% 0.01in /  0.25mm 58 W/m2
09:39 36.6 °F /  2.6 °C 33.7 °F /  0.9 °C 29.52in /  999.5hPa NNW 17.4mph /  28km/h 31mph /  49.9km/h 86% 0.02in /  0.51mm 69 W/m2
09:44 35.6 °F /  2 °C 32.8 °F /  0.4 °C 29.53in /  999.9hPa NNW 15.8mph /  25.4km/h 26mph /  41.8km/h 86.2% 0.03in /  0.76mm 63 W/m2
09:49 34.8 °F /  1.6 °C 32.3 °F /  0.2 °C 29.53in /  999.9hPa North 11.1mph /  17.9km/h 24mph /  38.6km/h 87.3% 0.03in /  0.76mm 44 W/m2
09:54 34.5 °F /  1.4 °C 32.2 °F /  0.1 °C 29.54in /  1000.2hPa NNW 8.8mph /  14.2km/h 26mph /  41.8km/h 88% 0.04in /  1.02mm 33 W/m2
09:59 34.5 °F /  1.4 °C 32.4 °F /  0.2 °C 29.54in /  1000.2hPa North 10.8mph /  17.4km/h 24mph /  38.6km/h 88.8% 0.04in /  1.02mm 33 W/m2
10:04 34.5 °F /  1.4 °C 32.5 °F /  0.3 °C 29.54in /  1000.2hPa NNW 7.5mph /  12.1km/h 17mph /  27.4km/h 89% 0.05in /  1.27mm 32 W/m2
10:09 34.7 °F /  1.5 °C 32.9 °F /  0.5 °C 29.54in /  1000.2hPa NNW 8.6mph /  13.8km/h 19mph /  30.6km/h 90% 0.06in /  1.52mm 33 W/m2
10:14 34.9 °F /  1.6 °C 33.1 °F /  0.6 °C 29.55in /  1000.6hPa NNW 7mph /  11.3km/h 17mph /  27.4km/h 90% 0.06in /  1.52mm 35 W/m2
10:19 35.1 °F /  1.7 °C 33.3 °F /  0.7 °C 29.55in /  1000.6hPa North 8.8mph /  14.2km/h 17mph /  27.4km/h 90% 0.06in /  1.52mm 28 W/m2
10:24 35.2 °F /  1.8 °C 33.4 °F /  0.8 °C 29.55in /  1000.6hPa NNW 9.2mph /  14.8km/h 22mph /  35.4km/h 90% 0.06in /  1.52mm 46 W/m2
10:29 35.7 °F /  2.1 °C 33.9 °F /  1.1 °C 29.56in /  1000.9hPa NNW 8.4mph /  13.5km/h 22mph /  35.4km/h 90% 0.06in /  1.52mm 69 W/m2
10:34 36 °F /  2.2 °C 34.2 °F /  1.2 °C 29.56in /  1000.9hPa North 9.2mph /  14.8km/h 17mph /  27.4km/h 90% 0.06in /  1.52mm 67 W/m2
10:39 36.4 °F /  2.4 °C 34.5 °F /  1.4 °C 29.56in /  1000.9hPa NNW 8.4mph /  13.5km/h 20mph /  32.2km/h 89.8% 0.06in /  1.52mm 67 W/m2
10:44 36.9 °F /  2.7 °C 34.9 °F /  1.6 °C 29.56in /  1000.9hPa NNW 10.4mph /  16.7km/h 20mph /  32.2km/h 88.8% 0.06in /  1.52mm 107 W/m2
10:49 37.4 °F /  3 °C 35 °F /  1.7 °C 29.57in /  1001.2hPa North 11.1mph /  17.9km/h 26mph /  41.8km/h 87.8% 0.05in /  1.27mm 98 W/m2
10:54 38 °F /  3.3 °C 35 °F /  1.7 °C 29.57in /  1001.2hPa North 12.1mph /  19.5km/h 28mph /  45.1km/h 85.8% 0.04in /  1.02mm 91 W/m2
10:59 38.3 °F /  3.5 °C 34.7 °F /  1.5 °C 29.57in /  1001.2hPa North 11.4mph /  18.3km/h 27mph /  43.5km/h 83.8% 0.03in /  0.76mm 98 W/m2
11:04 38.7 °F /  3.7 °C 34.8 °F /  1.6 °C 29.57in /  1001.2hPa North 14.8mph /  23.8km/h 23mph /  37km/h 82.8% 0.02in /  0.51mm 113 W/m2
11:09 38.8 °F /  3.8 °C 34.7 °F /  1.5 °C 29.57in /  1001.2hPa NNW 9.8mph /  15.8km/h 22mph /  35.4km/h 81.8% 0.02in /  0.51mm 132 W/m2
11:14 39.2 °F /  4 °C 34.6 °F /  1.4 °C 29.57in /  1001.2hPa NNE 15mph /  24.1km/h 25mph /  40.2km/h 80.6% 0.02in /  0.51mm 132 W/m2
11:19 39.5 °F /  4.2 °C 34.5 °F /  1.4 °C 29.57in /  1001.2hPa NW 12.5mph /  20.1km/h 30mph /  48.3km/h 79.4% 0.02in /  0.51mm 111 W/m2
11:24 39.7 °F /  4.3 °C 34.6 °F /  1.4 °C 29.58in /  1001.6hPa North 8.6mph /  13.8km/h 26mph /  41.8km/h 79% 0.01in /  0.25mm 90 W/m2
11:29 39.6 °F /  4.2 °C 34.4 °F /  1.3 °C 29.58in /  1001.6hPa NNW 14.4mph /  23.2km/h 27mph /  43.5km/h 78.6% 0.01in /  0.25mm 120 W/m2
11:34 39.9 °F /  4.4 °C 34.5 °F /  1.4 °C 29.59in /  1001.9hPa North 10.8mph /  17.4km/h 32mph /  51.5km/h 78% 0.01in /  0.25mm 111 W/m2
11:39 40.1 °F /  4.5 °C 34.3 °F /  1.3 °C 29.59in /  1001.9hPa North 13.2mph /  21.2km/h 22mph /  35.4km/h 77% 0.01in /  0.25mm 111 W/m2
11:44 40.3 °F /  4.6 °C 34.3 °F /  1.3 °C 29.59in /  1001.9hPa NNE 17.6mph /  28.3km/h 29mph /  46.7km/h 76.6% 0.00in /  0mm 165 W/m2
11:49 40.3 °F /  4.6 °C 33.9 °F /  1.1 °C 29.59in /  1001.9hPa North 15.6mph /  25.1km/h 34mph /  54.7km/h 75.2% 0.00in /  0mm 102 W/m2
11:54 40.3 °F /  4.6 °C 33.9 °F /  1.1 °C 29.59in /  1001.9hPa North 8.2mph /  13.2km/h 28mph /  45.1km/h 75.2% 0.00in /  0mm 102 W/m2
11:59 40.3 °F /  4.6 °C 34 °F /  1.1 °C 29.59in /  1001.9hPa NNW 15.6mph /  25.1km/h 29mph /  46.7km/h 75.6% 0.00in /  0mm 171 W/m2
12:04 40.5 °F /  4.7 °C 34 °F /  1.1 °C 29.59in /  1001.9hPa North 15.1mph /  24.3km/h 24mph /  38.6km/h 75% 0.00in /  0mm 116 W/m2
12:09 40.5 °F /  4.7 °C 33.8 °F /  1 °C 29.60in /  1002.3hPa North 12.8mph /  20.6km/h 30mph /  48.3km/h 74.4% 0.00in /  0mm 104 W/m2
12:14 40.5 °F /  4.7 °C 33.6 °F /  0.9 °C 29.60in /  1002.3hPa NNW 15mph /  24.1km/h 33mph /  53.1km/h 73.8% 0.00in /  0mm 118 W/m2
12:19 40.5 °F /  4.7 °C 33.5 °F /  0.8 °C 29.60in /  1002.3hPa North 15.9mph /  25.6km/h 32mph /  51.5km/h 73.6% 0.00in /  0mm 132 W/m2
12:24 40.5 °F /  4.7 °C 33.5 °F /  0.8 °C 29.60in /  1002.3hPa NNE 15.2mph /  24.5km/h 27mph /  43.5km/h 73.4% 0.00in /  0mm 239 W/m2
12:29 40.6 °F /  4.8 °C 33.6 °F /  0.9 °C 29.61in /  1002.6hPa North 13.4mph /  21.6km/h 27mph /  43.5km/h 73.2% 0.00in /  0mm 246 W/m2
12:34 40.8 °F /  4.9 °C 33.5 °F /  0.8 °C 29.61in /  1002.6hPa NNE 15.1mph /  24.3km/h 30mph /  48.3km/h 72.3% 0.00in /  0mm 246 W/m2
12:39 40.8 °F /  4.9 °C 33.2 °F /  0.7 °C 29.60in /  1002.3hPa North 15.6mph /  25.1km/h 32mph /  51.5km/h 71.2% 0.00in /  0mm 239 W/m2
12:44 41 °F /  5 °C 32.9 °F /  0.5 °C 29.61in /  1002.6hPa North 15mph /  24.1km/h 27mph /  43.5km/h 70.2% 0.00in /  0mm 237 W/m2
12:49 41.1 °F /  5.1 °C 33.1 °F /  0.6 °C 29.60in /  1002.3hPa NNE 16.6mph /  26.7km/h 33mph /  53.1km/h 70.2% 0.00in /  0mm 243 W/m2
12:54 41 °F /  5 °C 32.7 °F /  0.4 °C 29.61in /  1002.6hPa NNE 15mph /  24.1km/h 40mph /  64.4km/h 69.6% 0.00in /  0mm 236 W/m2
12:59 40.6 °F /  4.8 °C 32.3 °F /  0.2 °C 29.62in /  1002.9hPa NNW 17.5mph /  28.2km/h 40mph /  64.4km/h 69.3% 0.00in /  0mm 107 W/m2
13:04 40.5 °F /  4.7 °C 32.1 °F /  0.1 °C 29.62in /  1002.9hPa North 12.5mph /  20.1km/h 27mph /  43.5km/h 69.4% 0.00in /  0mm 65 W/m2
13:09 40.3 °F /  4.6 °C 32 °F /  0 °C 29.62in /  1002.9hPa North 16.6mph /  26.7km/h 34mph /  54.7km/h 69.6% 0.00in /  0mm 62 W/m2
13:14 40.1 °F /  4.5 °C 32 °F /  0 °C 29.62in /  1002.9hPa NNW 12.8mph /  20.6km/h 23mph /  37km/h 70% 0.00in /  0mm 70 W/m2
13:19 39.9 °F /  4.4 °C 31.8 °F /  -0.1 °C 29.63in /  1003.3hPa North 9.9mph /  15.9km/h 25mph /  40.2km/h 70% 0.00in /  0mm 63 W/m2
13:24 39.9 °F /  4.4 °C 31.8 °F /  -0.1 °C 29.63in /  1003.3hPa North 15.4mph /  24.8km/h 29mph /  46.7km/h 70% 0.00in /  0mm 195 W/m2
13:29 40.3 °F /  4.6 °C 32 °F /  0 °C 29.63in /  1003.3hPa NNW 12mph /  19.3km/h 26mph /  41.8km/h 69.4% 0.00in /  0mm 193 W/m2
13:34 40.5 °F /  4.7 °C 32 °F /  0 °C 29.63in /  1003.3hPa North 13.4mph /  21.6km/h 36mph /  57.9km/h 69% 0.00in /  0mm 155 W/m2
13:39 40.5 °F /  4.7 °C 32.1 °F /  0.1 °C 29.63in /  1003.3hPa North 11.6mph /  18.7km/h 22mph /  35.4km/h 69.4% 0.00in /  0mm 90 W/m2
13:44 40.3 °F /  4.6 °C 32.1 °F /  0.1 °C 29.64in /  1003.6hPa North 11.5mph /  18.5km/h 28mph /  45.1km/h 69.8% 0.00in /  0mm 88 W/m2
13:49 40.2 °F /  4.6 °C 32 °F /  0 °C 29.64in /  1003.6hPa North 12.6mph /  20.3km/h 26mph /  41.8km/h 69.6% 0.00in /  0mm 113 W/m2
13:54 40.2 °F /  4.6 °C 31.9 °F /  -0.1 °C 29.64in /  1003.6hPa North 15.1mph /  24.3km/h 36mph /  57.9km/h 69.5% 0.00in /  0mm 109 W/m2
13:59 40.2 °F /  4.6 °C 31.9 °F /  -0.1 °C 29.65in /  1003.9hPa North 12.8mph /  20.6km/h 29mph /  46.7km/h 69.4% 0.00in /  0mm 102 W/m2
14:04 40.1 °F /  4.5 °C 31.6 °F /  -0.2 °C 29.65in /  1003.9hPa NNW 12.9mph /  20.8km/h 24mph /  38.6km/h 69% 0.00in /  0mm 88 W/m2
14:09 40 °F /  4.4 °C 31.5 °F /  -0.3 °C 29.65in /  1003.9hPa North 11.8mph /  19km/h 24mph /  38.6km/h 69% 0.00in /  0mm 90 W/m2
14:14 39.9 °F /  4.4 °C 31.5 °F /  -0.3 °C 29.65in /  1003.9hPa NNE 11.6mph /  18.7km/h 27mph /  43.5km/h 69% 0.00in /  0mm 90 W/m2
14:19 40 °F /  4.4 °C 31.5 °F /  -0.3 °C 29.65in /  1003.9hPa North 13.8mph /  22.2km/h 24mph /  38.6km/h 68.8% 0.00in /  0mm 98 W/m2
14:24 39.9 °F /  4.4 °C 31.3 °F /  -0.4 °C 29.65in /  1003.9hPa NNE 14.1mph /  22.7km/h 30mph /  48.3km/h 68.6% 0.00in /  0mm 65 W/m2
14:29 39.8 °F /  4.3 °C 31.3 °F /  -0.4 °C 29.65in /  1003.9hPa NNW 8.4mph /  13.5km/h 30mph /  48.3km/h 68.8% 0.00in /  0mm 39 W/m2
14:34 39.7 °F /  4.3 °C 31.1 °F /  -0.5 °C 29.65in /  1003.9hPa NNW 13.4mph /  21.6km/h 27mph /  43.5km/h 68.6% 0.00in /  0mm 67 W/m2
14:39 39.6 °F /  4.2 °C 31.2 °F /  -0.4 °C 29.66in /  1004.3hPa NNW 6.2mph /  10km/h 16mph /  25.7km/h 69% 0.00in /  0mm 46 W/m2
14:44 39.6 °F /  4.2 °C 31.1 °F /  -0.5 °C 29.66in /  1004.3hPa North 14.2mph /  22.9km/h 26mph /  41.8km/h 69% 0.00in /  0mm 35 W/m2
14:49 39.6 °F /  4.2 °C 31.1 °F /  -0.5 °C 29.66in /  1004.3hPa North 14mph /  22.5km/h 31mph /  49.9km/h 69% 0.00in /  0mm 35 W/m2
14:54 39.6 °F /  4.2 °C 31.1 °F /  -0.5 °C 29.67in /  1004.6hPa NW 10mph /  16.1km/h 20mph /  32.2km/h 68.8% 0.00in /  0mm 37 W/m2
14:59 39.6 °F /  4.2 °C 30.9 °F /  -0.6 °C 29.68in /  1005hPa North 9.6mph /  15.4km/h 23mph /  37km/h 68.4% 0.00in /  0mm 23 W/m2
15:04 39.6 °F /  4.2 °C 30.7 °F /  -0.7 °C 29.68in /  1005hPa NNW 12.3mph /  19.8km/h 23mph /  37km/h 68% 0.00in /  0mm 21 W/m2
15:09 39.6 °F /  4.2 °C 30.7 °F /  -0.7 °C 29.68in /  1005hPa NNW 13.1mph /  21.1km/h 25mph /  40.2km/h 68% 0.00in /  0mm 23 W/m2
15:14 39.6 °F /  4.2 °C 30.5 °F /  -0.8 °C 29.68in /  1005hPa NNW 10.4mph /  16.7km/h 23mph /  37km/h 67.2% 0.00in /  0mm 26 W/m2
15:19 39.6 °F /  4.2 °C 30.4 °F /  -0.9 °C 29.69in /  1005.3hPa North 11.3mph /  18.2km/h 23mph /  37km/h 67% 0.00in /  0mm 32 W/m2
15:24 39.6 °F /  4.2 °C 30.7 °F /  -0.7 °C 29.69in /  1005.3hPa NNW 6.6mph /  10.6km/h 17mph /  27.4km/h 68% 0.00in /  0mm 32 W/m2
15:29 39.4 °F /  4.1 °C 30.6 °F /  -0.8 °C 29.69in /  1005.3hPa North 10.6mph /  17.1km/h 25mph /  40.2km/h 68% 0.00in /  0mm 26 W/m2
15:34 39.4 °F /  4.1 °C 30.7 °F /  -0.7 °C 29.69in /  1005.3hPa NNW 5.9mph /  9.5km/h 16mph /  25.7km/h 68.4% 0.00in /  0mm 28 W/m2
15:39 39.3 °F /  4.1 °C 30.5 °F /  -0.8 °C 29.69in /  1005.3hPa North 8.3mph /  13.4km/h 16mph /  25.7km/h 68% 0.00in /  0mm 14 W/m2
15:44 39.2 °F /  4 °C 30.4 °F /  -0.9 °C 29.69in /  1005.3hPa North 12.5mph /  20.1km/h 23mph /  37km/h 68% 0.00in /  0mm 11 W/m2
15:49 39.2 °F /  4 °C 30.2 °F /  -1 °C 29.70in /  1005.6hPa North 10mph /  16.1km/h 26mph /  41.8km/h 67.6% 0.00in /  0mm 9 W/m2
15:54 39 °F /  3.9 °C 30.1 °F /  -1.1 °C 29.70in /  1005.6hPa North 7mph /  11.3km/h 26mph /  41.8km/h 67.8% 0.00in /  0mm 7 W/m2
15:59 39 °F /  3.9 °C 29.9 °F /  -1.2 °C 29.70in /  1005.6hPa NNW 7.6mph /  12.2km/h 17mph /  27.4km/h 67.2% 0.00in /  0mm 7 W/m2
16:04 39 °F /  3.9 °C 29.9 °F /  -1.2 °C 29.70in /  1005.6hPa NNW 8.5mph /  13.7km/h 19mph /  30.6km/h 67.2% 0.00in /  0mm 5 W/m2
16:09 39 °F /  3.9 °C 29.8 °F /  -1.2 °C 29.71in /  1006hPa NW 11.2mph /  18km/h 20mph /  32.2km/h 67% 0.00in /  0mm 0 W/m2
16:14 39 °F /  3.9 °C 29.8 °F /  -1.2 °C 29.71in /  1006hPa NNW 14mph /  22.5km/h 23mph /  37km/h 67% 0.00in /  0mm 0 W/m2
16:19 38.9 °F /  3.8 °C 29.9 °F /  -1.2 °C 29.72in /  1006.3hPa NNW 4.5mph /  7.2km/h 18mph /  29km/h 67.5% 0.00in /  0mm 0 W/m2
16:24 38.8 °F /  3.8 °C 29.8 °F /  -1.2 °C 29.72in /  1006.3hPa NNW 8.4mph /  13.5km/h 19mph /  30.6km/h 67.2% 0.00in /  0mm 0 W/m2
16:29 38.8 °F /  3.8 °C 29.7 °F /  -1.3 °C 29.72in /  1006.3hPa NNW 6.8mph /  10.9km/h 18mph /  29km/h 67% 0.00in /  0mm 0 W/m2
16:34 38.8 °F /  3.8 °C 29.5 °F /  -1.4 °C 29.72in /  1006.3hPa NNW 11.2mph /  18km/h 23mph /  37km/h 66.6% 0.00in /  0mm 0 W/m2
16:39 38.7 °F /  3.7 °C 29.5 °F /  -1.4 °C 29.72in /  1006.3hPa NW 12.4mph /  20km/h 21mph /  33.8km/h 66.8% 0.00in /  0mm 0 W/m2
16:44 38.7 °F /  3.7 °C 29.5 °F /  -1.4 °C 29.73in /  1006.7hPa NNW 7.6mph /  12.2km/h 23mph /  37km/h 67% 0.00in /  0mm 0 W/m2
16:49 38.7 °F /  3.7 °C 29.5 °F /  -1.4 °C 29.73in /  1006.7hPa NNW 10mph /  16.1km/h 23mph /  37km/h 67% 0.00in /  0mm 0 W/m2
16:54 38.5 °F /  3.6 °C 29.3 °F /  -1.5 °C 29.73in /  1006.7hPa NNW 7.8mph /  12.6km/h 16mph /  25.7km/h 67% 0.00in /  0mm 0 W/m2
16:59 38.5 °F /  3.6 °C 29.3 °F /  -1.5 °C 29.73in /  1006.7hPa NNW 9.4mph /  15.1km/h 27mph /  43.5km/h 67% 0.00in /  0mm 0 W/m2
17:04 38.5 °F /  3.6 °C 29.2 °F /  -1.6 °C 29.73in /  1006.7hPa North 9mph /  14.5km/h 21mph /  33.8km/h 66.8% 0.00in /  0mm 0 W/m2
17:09 38.2 °F /  3.4 °C 29 °F /  -1.7 °C 29.73in /  1006.7hPa NNW 7mph /  11.3km/h 19mph /  30.6km/h 67% 0.00in /  0mm 0 W/m2
17:14 38.1 °F /  3.4 °C 28.9 °F /  -1.7 °C 29.73in /  1006.7hPa North 9.4mph /  15.1km/h 18mph /  29km/h 67% 0.00in /  0mm 0 W/m2
17:19 38 °F /  3.3 °C 28.9 °F /  -1.7 °C 29.73in /  1006.7hPa NNW 9.2mph /  14.8km/h 19mph /  30.6km/h 67% 0.00in /  0mm 0 W/m2
17:24 37.9 °F /  3.3 °C 28.8 °F /  -1.8 °C 29.74in /  1007hPa North 11.2mph /  18km/h 21mph /  33.8km/h 67% 0.00in /  0mm 0 W/m2
17:29 37.9 °F /  3.3 °C 28.9 °F /  -1.7 °C 29.74in /  1007hPa NNW 8.4mph /  13.5km/h 15mph /  24.1km/h 67.2% 0.00in /  0mm 0 W/m2
17:34 37.9 °F /  3.3 °C 29 °F /  -1.7 °C 29.74in /  1007hPa NNW 10.8mph /  17.4km/h 27mph /  43.5km/h 67.8% 0.00in /  0mm 0 W/m2
17:39 37.9 °F /  3.3 °C 28.8 °F /  -1.8 °C 29.74in /  1007hPa NNW 9.7mph /  15.6km/h 20mph /  32.2km/h 67% 0.00in /  0mm 0 W/m2
17:44 37.8 °F /  3.2 °C 28.7 °F /  -1.8 °C 29.74in /  1007hPa NNW 12.4mph /  20km/h 23mph /  37km/h 67.2% 0.00in /  0mm 0 W/m2
17:49 37.8 °F /  3.2 °C 28.6 °F /  -1.9 °C 29.74in /  1007hPa NNW 9.6mph /  15.4km/h 23mph /  37km/h 67% 0.00in /  0mm 0 W/m2
17:54 37.6 °F /  3.1 °C 28.4 °F /  -2 °C 29.74in /  1007hPa NNW 12.2mph /  19.6km/h 27mph /  43.5km/h 67% 0.00in /  0mm 0 W/m2
17:59 37.6 °F /  3.1 °C 28.4 °F /  -2 °C 29.74in /  1007hPa NW 10.4mph /  16.7km/h 20mph /  32.2km/h 67% 0.00in /  0mm 0 W/m2
18:04 37.4 °F /  3 °C 28.4 °F /  -2 °C 29.74in /  1007hPa NNW 8mph /  12.9km/h 21mph /  33.8km/h 67.4% 0.00in /  0mm 0 W/m2
18:09 37.3 °F /  2.9 °C 28.3 °F /  -2.1 °C 29.75in /  1007.3hPa NNW 7mph /  11.3km/h 21mph /  33.8km/h 67.2% 0.00in /  0mm 0 W/m2
18:14 37.1 °F /  2.8 °C 28.5 °F /  -1.9 °C 29.75in /  1007.3hPa NNW 9.8mph /  15.8km/h 19mph /  30.6km/h 68% 0.00in /  0mm 0 W/m2
18:19 37 °F /  2.8 °C 28.4 °F /  -2 °C 29.75in /  1007.3hPa NNW 9.6mph /  15.4km/h 19mph /  30.6km/h 68% 0.00in /  0mm 0 W/m2
18:24 37.1 °F /  2.8 °C 28.3 °F /  -2.1 °C 29.76in /  1007.7hPa NNW 10.9mph /  17.5km/h 23mph /  37km/h 67.6% 0.00in /  0mm 0 W/m2
18:25 37 °F /  2.8 °C 28.4 °F /  -2 °C 29.75in /  1007.3hPa NNW 6.9mph /  11.1km/h 16mph /  25.7km/h 68% 0.00in /  0mm 0 W/m2
18:34 37 °F /  2.8 °C 28.3 °F /  -2.1 °C 29.76in /  1007.7hPa NW 10mph /  16.1km/h 18mph /  29km/h 67.8% 0.00in /  0mm 0 W/m2
18:39 37 °F /  2.8 °C 28.4 °F /  -2 °C 29.76in /  1007.7hPa NNW 7.6mph /  12.2km/h 17mph /  27.4km/h 68% 0.00in /  0mm 0 W/m2
18:44 36.9 °F /  2.7 °C 28.2 °F /  -2.1 °C 29.77in /  1008hPa NNW 9.8mph /  15.8km/h 18mph /  29km/h 68% 0.00in /  0mm 0 W/m2
18:49 36.9 °F /  2.7 °C 28.3 °F /  -2.1 °C 29.76in /  1007.7hPa NW 8.1mph /  13km/h 16mph /  25.7km/h 68.2% 0.00in /  0mm 0 W/m2
18:54 36.8 °F /  2.7 °C 28.5 °F /  -1.9 °C 29.77in /  1008hPa NW 9.6mph /  15.4km/h 15mph /  24.1km/h 69% 0.00in /  0mm 0 W/m2
18:59 36.7 °F /  2.6 °C 28.4 °F /  -2 °C 29.77in /  1008hPa NNW 7.2mph /  11.6km/h 19mph /  30.6km/h 69% 0.00in /  0mm 0 W/m2
19:04 36.7 °F /  2.6 °C 28.4 °F /  -2 °C 29.77in /  1008hPa NNW 9mph /  14.5km/h 18mph /  29km/h 69% 0.00in /  0mm 0 W/m2
19:09 36.7 °F /  2.6 °C 28.4 °F /  -2 °C 29.77in /  1008hPa NW 11mph /  17.7km/h 18mph /  29km/h 69% 0.00in /  0mm 0 W/m2
19:14 36.6 °F /  2.6 °C 28.3 °F /  -2.1 °C 29.78in /  1008.4hPa NNW 6.7mph /  10.8km/h 17mph /  27.4km/h 69% 0.00in /  0mm 0 W/m2
19:19 36.4 °F /  2.4 °C 28.1 °F /  -2.2 °C 29.78in /  1008.4hPa NNW 6.3mph /  10.1km/h 13mph /  20.9km/h 69% 0.00in /  0mm 0 W/m2
19:24 36.3 °F /  2.4 °C 28.2 °F /  -2.1 °C 29.78in /  1008.4hPa NNW 7.6mph /  12.2km/h 18mph /  29km/h 69.6% 0.00in /  0mm 0 W/m2
19:29 36.2 °F /  2.3 °C 28.1 °F /  -2.2 °C 29.78in /  1008.4hPa NW 6.9mph /  11.1km/h 14mph /  22.5km/h 69.4% 0.00in /  0mm 0 W/m2
19:34 36.1 °F /  2.3 °C 28.2 °F /  -2.1 °C 29.78in /  1008.4hPa NW 7.8mph /  12.6km/h 16mph /  25.7km/h 70% 0.00in /  0mm 0 W/m2
19:39 36.1 °F /  2.3 °C 28.2 °F /  -2.1 °C 29.78in /  1008.4hPa NW 8.2mph /  13.2km/h 15mph /  24.1km/h 70% 0.00in /  0mm 0 W/m2
19:44 36 °F /  2.2 °C 28.1 °F /  -2.2 °C 29.78in /  1008.4hPa NNW 7mph /  11.3km/h 16mph /  25.7km/h 70% 0.00in /  0mm 0 W/m2
19:49 36 °F /  2.2 °C 28.1 °F /  -2.2 °C 29.78in /  1008.4hPa NNW 9.6mph /  15.4km/h 16mph /  25.7km/h 70.2% 0.00in /  0mm 0 W/m2
19:54 35.9 °F /  2.2 °C 28.2 °F /  -2.1 °C 29.78in /  1008.4hPa NW 7.5mph /  12.1km/h 16mph /  25.7km/h 70.8% 0.00in /  0mm 0 W/m2
19:59 35.8 °F /  2.1 °C 28.2 °F /  -2.1 °C 29.78in /  1008.4hPa NNW 6.4mph /  10.3km/h 14mph /  22.5km/h 71% 0.00in /  0mm 0 W/m2
20:04 35.8 °F /  2.1 °C 28.2 °F /  -2.1 °C 29.79in /  1008.7hPa NNW 5.8mph /  9.3km/h 11mph /  17.7km/h 71% 0.00in /  0mm 0 W/m2
20:09 35.8 °F /  2.1 °C 28.2 °F /  -2.1 °C 29.79in /  1008.7hPa NW 7.1mph /  11.4km/h 15mph /  24.1km/h 71% 0.00in /  0mm 0 W/m2
20:14 35.8 °F /  2.1 °C 28 °F /  -2.2 °C 29.79in /  1008.7hPa NW 7.8mph /  12.6km/h 15mph /  24.1km/h 70.4% 0.00in /  0mm 0 W/m2
20:19 35.8 °F /  2.1 °C 27.9 °F /  -2.3 °C 29.79in /  1008.7hPa NW 5.4mph /  8.7km/h 14mph /  22.5km/h 70% 0.00in /  0mm 0 W/m2
20:24 35.5 °F /  1.9 °C 27.9 °F /  -2.3 °C 29.79in /  1008.7hPa NW 5.2mph /  8.4km/h 14mph /  22.5km/h 70.8% 0.00in /  0mm 0 W/m2
20:29 35.4 °F /  1.9 °C 27.9 °F /  -2.3 °C 29.79in /  1008.7hPa NW 7.2mph /  11.6km/h 14mph /  22.5km/h 71% 0.00in /  0mm 0 W/m2
20:34 35.4 °F /  1.9 °C 27.9 °F /  -2.3 °C 29.79in /  1008.7hPa NNW 5.5mph /  8.9km/h 13mph /  20.9km/h 71% 0.00in /  0mm 0 W/m2
20:39 35.4 °F /  1.9 °C 27.9 °F /  -2.3 °C 29.79in /  1008.7hPa NW 6mph /  9.7km/h 13mph /  20.9km/h 71% 0.00in /  0mm 0 W/m2
20:44 35.4 °F /  1.9 °C 27.9 °F /  -2.3 °C 29.79in /  1008.7hPa NNW 4.5mph /  7.2km/h 13mph /  20.9km/h 71% 0.00in /  0mm 0 W/m2
20:49 35.4 °F /  1.9 °C 27.9 °F /  -2.3 °C 29.80in /  1009hPa NW 4mph /  6.4km/h 13mph /  20.9km/h 71% 0.00in /  0mm 0 W/m2
20:54 35.2 °F /  1.8 °C 27.7 °F /  -2.4 °C 29.80in /  1009hPa NW 5.4mph /  8.7km/h 12mph /  19.3km/h 71% 0.00in /  0mm 0 W/m2
20:59 35.2 °F /  1.8 °C 27.7 °F /  -2.4 °C 29.80in /  1009hPa NW 8.7mph /  14km/h 14mph /  22.5km/h 71% 0.00in /  0mm 0 W/m2
21:04 35.3 °F /  1.8 °C 27.8 °F /  -2.3 °C 29.80in /  1009hPa NW 4.8mph /  7.7km/h 17mph /  27.4km/h 71% 0.00in /  0mm 0 W/m2
21:09 35.2 °F /  1.8 °C 27.7 °F /  -2.4 °C 29.80in /  1009hPa NW 6.8mph /  10.9km/h 15mph /  24.1km/h 71% 0.00in /  0mm 0 W/m2
21:14 35.2 °F /  1.8 °C 27.7 °F /  -2.4 °C 29.80in /  1009hPa NW 8mph /  12.9km/h 14mph /  22.5km/h 71% 0.00in /  0mm 0 W/m2
21:19 35.3 °F /  1.8 °C 27.8 °F /  -2.3 °C 29.80in /  1009hPa NW 7.8mph /  12.6km/h 17mph /  27.4km/h 71% 0.00in /  0mm 0 W/m2
21:24 35.4 °F /  1.9 °C 27.9 °F /  -2.3 °C 29.81in /  1009.4hPa NW 7.6mph /  12.2km/h 14mph /  22.5km/h 71% 0.00in /  0mm 0 W/m2
21:29 35.3 °F /  1.8 °C 27.8 °F /  -2.3 °C 29.80in /  1009hPa NW 6.8mph /  10.9km/h 14mph /  22.5km/h 71% 0.00in /  0mm 0 W/m2
21:34 35.2 °F /  1.8 °C 27.7 °F /  -2.4 °C 29.81in /  1009.4hPa NW 7.6mph /  12.2km/h 16mph /  25.7km/h 71% 0.00in /  0mm 0 W/m2
21:39 35.2 °F /  1.8 °C 27.7 °F /  -2.4 °C 29.81in /  1009.4hPa NW 6mph /  9.7km/h 12mph /  19.3km/h 71% 0.00in /  0mm 0 W/m2
21:44 35.1 °F /  1.7 °C 27.5 °F /  -2.5 °C 29.81in /  1009.4hPa NNW 5.3mph /  8.5km/h 9mph /  14.5km/h 71% 0.00in /  0mm 0 W/m2
21:49 35.1 °F /  1.7 °C 27.5 °F /  -2.5 °C 29.82in /  1009.7hPa NNW 7.4mph /  11.9km/h 14mph /  22.5km/h 71% 0.00in /  0mm 0 W/m2
21:54 35.1 °F /  1.7 °C 27.7 °F /  -2.4 °C 29.81in /  1009.4hPa NNW 4.4mph /  7.1km/h 11mph /  17.7km/h 71.6% 0.00in /  0mm 0 W/m2
21:59 35.1 °F /  1.7 °C 27.8 °F /  -2.3 °C 29.81in /  1009.4hPa NNW 4.4mph /  7.1km/h 12mph /  19.3km/h 71.8% 0.00in /  0mm 0 W/m2
22:04 35.1 °F /  1.7 °C 27.8 °F /  -2.3 °C 29.81in /  1009.4hPa NW 5.3mph /  8.5km/h 14mph /  22.5km/h 71.8% 0.00in /  0mm 0 W/m2
22:09 34.9 °F /  1.6 °C 27.7 °F /  -2.4 °C 29.81in /  1009.4hPa NW 8.6mph /  13.8km/h 15mph /  24.1km/h 72% 0.00in /  0mm 0 W/m2
22:14 34.9 °F /  1.6 °C 27.7 °F /  -2.4 °C 29.81in /  1009.4hPa NW 7mph /  11.3km/h 15mph /  24.1km/h 72% 0.00in /  0mm 0 W/m2
22:19 34.9 °F /  1.6 °C 27.7 °F /  -2.4 °C 29.81in /  1009.4hPa NNW 5.4mph /  8.7km/h 15mph /  24.1km/h 72% 0.00in /  0mm 0 W/m2
22:24 34.9 °F /  1.6 °C 27.7 °F /  -2.4 °C 29.81in /  1009.4hPa NNW 3.4mph /  5.5km/h 9mph /  14.5km/h 72% 0.00in /  0mm 0 W/m2
22:29 34.9 °F /  1.6 °C 27.7 °F /  -2.4 °C 29.81in /  1009.4hPa NNW 4.8mph /  7.7km/h 13mph /  20.9km/h 72% 0.00in /  0mm 0 W/m2
22:34 34.9 °F /  1.6 °C 27.6 °F /  -2.4 °C 29.81in /  1009.4hPa NNW 8.9mph /  14.3km/h 16mph /  25.7km/h 71.6% 0.00in /  0mm 0 W/m2
22:39 35.1 °F /  1.7 °C 27.5 °F /  -2.5 °C 29.81in /  1009.4hPa NNW 7.2mph /  11.6km/h 16mph /  25.7km/h 71.2% 0.00in /  0mm 0 W/m2
22:44 34.9 °F /  1.6 °C 27.7 °F /  -2.4 °C 29.81in /  1009.4hPa NNW 6.7mph /  10.8km/h 13mph /  20.9km/h 71.8% 0.00in /  0mm 0 W/m2
22:49 34.9 °F /  1.6 °C 27.5 °F /  -2.5 °C 29.81in /  1009.4hPa NNW 6.3mph /  10.1km/h 15mph /  24.1km/h 71.6% 0.00in /  0mm 0 W/m2
22:53 34.9 °F /  1.6 °C 27.3 °F /  -2.6 °C 29.80in /  1009hPa NW 6.8mph /  10.9km/h 20mph /  32.2km/h 71% 0.00in /  0mm 0 W/m2
22:59 34.9 °F /  1.6 °C 27.4 °F /  -2.6 °C 29.80in /  1009hPa NNW 7.3mph /  11.7km/h 16mph /  25.7km/h 71.2% 0.00in /  0mm 0 W/m2
23:04 34.9 °F /  1.6 °C 27.7 °F /  -2.4 °C 29.81in /  1009.4hPa NNW 6.2mph /  10km/h 18mph /  29km/h 72% 0.00in /  0mm 0 W/m2
23:09 34.9 °F /  1.6 °C 27.7 °F /  -2.4 °C 29.81in /  1009.4hPa NNW 7.8mph /  12.6km/h 16mph /  25.7km/h 72% 0.00in /  0mm 0 W/m2
23:14 34.8 °F /  1.6 °C 27.6 °F /  -2.4 °C 29.81in /  1009.4hPa NNW 7mph /  11.3km/h 14mph /  22.5km/h 72% 0.00in /  0mm 0 W/m2
23:19 34.5 °F /  1.4 °C 27.3 °F /  -2.6 °C 29.81in /  1009.4hPa NNW 6.6mph /  10.6km/h 13mph /  20.9km/h 72% 0.00in /  0mm 0 W/m2
23:24 34.5 °F /  1.4 °C 27.3 °F /  -2.6 °C 29.81in /  1009.4hPa NNW 9.2mph /  14.8km/h 14mph /  22.5km/h 72% 0.00in /  0mm 0 W/m2
23:29 34.6 °F /  1.4 °C 27.4 °F /  -2.6 °C 29.81in /  1009.4hPa NNW 7.2mph /  11.6km/h 13mph /  20.9km/h 72% 0.00in /  0mm 0 W/m2
23:34 34.5 °F /  1.4 °C 27.3 °F /  -2.6 °C 29.82in /  1009.7hPa NW 7.6mph /  12.2km/h 15mph /  24.1km/h 72% 0.00in /  0mm 0 W/m2
23:39 34.5 °F /  1.4 °C 27.3 °F /  -2.6 °C 29.81in /  1009.4hPa NW 4.4mph /  7.1km/h 11mph /  17.7km/h 72% 0.00in /  0mm 0 W/m2
23:44 34.3 °F /  1.3 °C 27.1 °F /  -2.7 °C 29.82in /  1009.7hPa WNW 5.5mph /  8.9km/h 10mph /  16.1km/h 72% 0.00in /  0mm 0 W/m2
23:49 34.3 °F /  1.3 °C 27.1 °F /  -2.7 °C 29.82in /  1009.7hPa NW 4mph /  6.4km/h 9mph /  14.5km/h 72% 0.00in /  0mm 0 W/m2
23:54 34.2 °F /  1.2 °C 27 °F /  -2.8 °C 29.82in /  1009.7hPa WNW 4.9mph /  7.9km/h 9mph /  14.5km/h 72% 0.00in /  0mm 0 W/m2
23:59 34.3 °F /  1.3 °C 27.1 °F /  -2.7 °C 29.82in /  1009.7hPa WNW 3.2mph /  5.1km/h 10mph /  16.1km/h 72% 0.00in /  0mm 0 W/m2
Bath Spa Weather
Compliments of Weather Underground - 2 mb